Time;durP1;ratioP1;P1;durP2;ratioP2;P2;SDS_P1;SDS_P2;PMS_P1;PMS_P2;Temp;Humidity;BMP_temperature;BMP_pressure;BME280_temperature;BME280_humidity;BME280_pressure;Samples;Min_cycle;Max_cycle;Signal;HPM_P1;HPM_P2
2024/01/02 00:02:08;;;;;;;6.22;3.10;;;;;;;8.39;61.79;99481.09;5012219;28;96836;-83
2024/01/02 00:04:34;;;;;;;8.95;3.40;;;;;;;8.46;61.54;99511.31;4997506;27;100801;-84
2024/01/02 00:06:59;;;;;;;7.18;3.50;;;;;;;8.35;61.78;99498.63;5015037;28;101182;-84
2024/01/02 00:09:25;;;;;;;5.53;2.95;;;;;;;8.53;61.72;99504.97;5014728;28;96696;-84
2024/01/02 00:11:50;;;;;;;4.05;2.42;;;;;;;8.48;61.62;99521.72;5027108;28;96817;-83
2024/01/02 00:14:16;;;;;;;6.43;2.40;;;;;;;8.38;61.74;99510.75;5030219;28;97849;-83
2024/01/02 00:16:41;;;;;;;4.22;2.38;;;;;;;8.27;62.25;99507.69;5026640;28;97904;-83
2024/01/02 00:19:07;;;;;;;8.65;3.13;;;;;;;8.24;62.06;99513.88;5014090;28;97044;-84
2024/01/02 00:21:32;;;;;;;5.47;2.30;;;;;;;8.21;62.74;99519.22;5024427;28;96907;-82
2024/01/02 00:23:59;;;;;;;5.03;2.17;;;;;;;8.07;63.05;99522.34;5013859;28;101215;-83
2024/01/02 00:26:24;;;;;;;3.85;1.73;;;;;;;7.94;62.83;99495.81;5009435;27;101025;-83
2024/01/02 00:28:50;;;;;;;4.80;1.60;;;;;;;8.00;63.29;99522.59;5026142;27;96782;-83
2024/01/02 00:31:15;;;;;;;4.45;1.60;;;;;;;7.99;63.60;99524.38;5021837;28;97007;-83
2024/01/02 00:33:41;;;;;;;2.55;1.35;;;;;;;7.91;62.83;99540.34;5017218;27;97989;-83
2024/01/02 00:36:10;;;;;;;2.20;0.95;;;;;;;7.77;61.97;99528.66;5034150;27;101195;-82
2024/01/02 00:38:36;;;;;;;2.47;1.00;;;;;;;7.81;61.92;99544.16;5013482;28;97773;-83
2024/01/02 00:41:02;;;;;;;1.95;0.90;;;;;;;7.68;62.66;99541.13;5007271;28;97429;-83
2024/01/02 00:43:28;;;;;;;3.13;1.20;;;;;;;7.66;62.65;99542.09;5013645;27;100800;-83
2024/01/02 00:45:53;;;;;;;3.35;1.02;;;;;;;7.53;62.60;99538.19;5010658;28;99898;-83
2024/01/02 00:48:19;;;;;;;5.13;1.15;;;;;;;7.52;62.85;99555.63;4997236;27;97351;-83
2024/01/02 00:50:44;;;;;;;4.93;1.50;;;;;;;7.63;62.35;99548.28;5013862;28;96807;-83
2024/01/02 00:53:10;;;;;;;3.25;1.02;;;;;;;7.57;62.90;99553.72;5029684;27;101237;-83
2024/01/02 00:55:36;;;;;;;5.68;1.30;;;;;;;7.52;62.82;99553.00;5027735;27;97968;-82
2024/01/02 00:58:03;;;;;;;6.05;1.35;;;;;;;7.36;63.37;99539.63;5010529;28;96748;-83
2024/01/02 01:00:29;;;;;;;3.78;0.85;;;;;;;7.60;63.60;99552.75;5008636;27;96843;-83
2024/01/02 01:02:54;;;;;;;3.70;1.30;;;;;;;7.60;63.41;99532.72;5001298;28;101340;-85
2024/01/02 01:05:20;;;;;;;4.68;1.40;;;;;;;7.72;64.01;99550.56;5029775;27;101453;-83
2024/01/02 01:07:45;;;;;;;9.68;1.75;;;;;;;7.64;64.76;99549.97;5030363;27;97025;-83
2024/01/02 01:10:11;;;;;;;5.63;1.60;;;;;;;7.77;64.17;99546.97;5035259;27;96748;-83
2024/01/02 01:12:36;;;;;;;6.15;1.48;;;;;;;7.65;64.63;99535.16;4995644;28;101315;-83
2024/01/02 01:15:03;;;;;;;6.57;1.20;;;;;;;7.84;64.19;99538.84;5013627;28;97971;-83
2024/01/02 01:17:29;;;;;;;5.57;1.33;;;;;;;7.83;64.89;99547.59;5013524;28;97109;-84
2024/01/02 01:19:54;;;;;;;2.47;1.20;;;;;;;7.83;64.97;99544.13;5020232;28;96893;-83
2024/01/02 01:22:20;;;;;;;3.53;1.20;;;;;;;7.76;64.61;99506.88;5020411;28;97611;-83
2024/01/02 01:24:45;;;;;;;4.95;1.85;;;;;;;7.94;65.23;99537.63;5017032;28;101259;-83
2024/01/02 01:27:11;;;;;;;6.53;1.85;;;;;;;7.99;64.87;99519.13;4995876;28;97210;-82
2024/01/02 01:29:37;;;;;;;4.25;1.90;;;;;;;8.02;64.67;99523.41;5042503;27;97207;-82
2024/01/02 01:32:02;;;;;;;8.95;2.30;;;;;;;8.02;65.10;99528.63;5030519;28;97988;-82
2024/01/02 01:34:28;;;;;;;6.90;1.50;;;;;;;8.07;65.07;99519.72;5013217;28;97812;-82
2024/01/02 01:36:54;;;;;;;6.10;1.40;;;;;;;8.07;64.80;99524.94;5030299;28;96833;-82
2024/01/02 01:39:20;;;;;;;5.60;1.77;;;;;;;8.08;65.54;99526.63;5029939;28;96871;-83
2024/01/02 01:41:46;;;;;;;6.80;1.48;;;;;;;8.15;65.09;99528.13;5009274;28;101569;-83
2024/01/02 01:44:11;;;;;;;4.68;1.38;;;;;;;8.18;65.35;99514.09;5011993;28;97910;-82
2024/01/02 01:46:37;;;;;;;6.05;1.60;;;;;;;8.04;65.53;99506.75;5012891;28;96817;-82
2024/01/02 01:49:06;;;;;;;7.07;2.35;;;;;;;8.20;64.82;99529.72;5000472;28;96834;-82
2024/01/02 01:51:35;;;;;;;7.13;1.60;;;;;;;8.24;65.26;99523.47;5005260;28;101343;-82
2024/01/02 01:54:03;;;;;;;6.38;1.90;;;;;;;8.24;65.00;99521.72;5038904;27;97554;-82
2024/01/02 01:56:29;;;;;;;6.95;1.67;;;;;;;8.16;65.60;99513.31;5012938;28;96768;-82
2024/01/02 01:58:55;;;;;;;5.82;1.50;;;;;;;8.22;65.50;99520.91;5003737;27;96895;-83
2024/01/02 02:01:20;;;;;;;10.57;2.08;;;;;;;8.22;65.95;99525.28;5010853;27;101810;-82
2024/01/02 02:03:47;;;;;;;8.48;1.80;;;;;;;8.26;65.20;99519.91;5013357;27;101155;-83
2024/01/02 02:06:12;;;;;;;5.50;1.65;;;;;;;8.27;65.85;99528.59;5016381;27;96827;-82
2024/01/02 02:08:38;;;;;;;4.93;1.38;;;;;;;8.26;65.70;99521.66;5041020;27;96918;-82
2024/01/02 02:11:04;;;;;;;6.05;1.58;;;;;;;8.11;65.96;99512.59;5015680;27;100944;-83
2024/01/02 02:13:30;;;;;;;4.88;1.73;;;;;;;8.02;65.66;99511.19;5015847;27;101986;-82
2024/01/02 02:15:55;;;;;;;5.30;1.63;;;;;;;8.19;65.75;99528.03;5032754;27;96706;-82
2024/01/02 02:18:21;;;;;;;5.07;2.33;;;;;;;8.22;65.56;99530.53;5015049;27;97742;-83
2024/01/02 02:20:46;;;;;;;9.07;2.40;;;;;;;8.22;65.25;99522.69;5013218;27;101595;-83
2024/01/02 02:23:12;;;;;;;10.82;2.47;;;;;;;8.21;66.08;99524.44;5023121;27;101060;-83
2024/01/02 02:25:37;;;;;;;8.98;2.60;;;;;;;8.22;65.99;99526.13;5017048;27;96719;-83
2024/01/02 02:28:03;;;;;;;7.68;2.20;;;;;;;8.18;65.60;99515.88;5043588;27;96756;-83
2024/01/02 02:30:29;;;;;;;6.72;1.98;;;;;;;8.17;65.92;99509.75;5022984;27;98614;-83
2024/01/02 02:32:55;;;;;;;6.72;2.45;;;;;;;8.09;65.96;99497.00;5019480;27;101066;-84
2024/01/02 02:35:20;;;;;;;9.48;2.35;;;;;;;8.14;65.48;99509.88;5031402;27;97046;-81
2024/01/02 02:37:46;;;;;;;11.32;2.65;;;;;;;8.12;65.48;99509.09;5027820;28;96865;-83
2024/01/02 02:40:12;;;;;;;7.82;2.42;;;;;;;8.16;65.54;99505.47;5027697;27;101417;-82
2024/01/02 02:42:37;;;;;;;9.30;2.63;;;;;;;8.18;64.58;99494.97;5014976;27;101028;-82
2024/01/02 02:45:04;;;;;;;5.45;1.85;;;;;;;8.20;65.16;99508.81;5015253;27;96753;-82
2024/01/02 02:47:30;;;;;;;10.98;3.53;;;;;;;8.14;65.18;99505.53;4997703;27;96919;-84
2024/01/02 02:49:55;;;;;;;8.32;1.90;;;;;;;8.04;64.73;99504.16;5026827;27;102754;-85
2024/01/02 02:52:21;;;;;;;7.15;2.42;;;;;;;7.97;65.06;99507.03;5031295;27;97606;-83
2024/01/02 02:54:46;;;;;;;7.95;2.50;;;;;;;7.96;65.17;99508.78;5015029;27;96699;-82
2024/01/02 02:57:12;;;;;;;9.32;2.42;;;;;;;7.98;64.84;99507.00;5032269;27;96874;-83
2024/01/02 02:59:38;;;;;;;6.35;2.42;;;;;;;7.99;64.64;99502.59;5013457;27;97920;-83
2024/01/02 03:02:03;;;;;;;9.82;2.85;;;;;;;7.90;65.26;99485.50;5039540;27;98461;-84
2024/01/02 03:04:29;;;;;;;8.02;2.65;;;;;;;7.97;65.00;99500.06;5031467;27;97006;-83
2024/01/02 03:06:55;;;;;;;7.30;1.80;;;;;;;8.01;64.37;99509.50;5015087;27;97181;-83
2024/01/02 03:09:21;;;;;;;9.40;2.95;;;;;;;8.04;64.66;99503.31;5030640;27;97535;-82
2024/01/02 03:11:48;;;;;;;6.28;1.98;;;;;;;7.96;64.50;99487.03;5011586;28;101013;-82
2024/01/02 03:14:14;;;;;;;5.50;1.85;;;;;;;7.99;64.61;99500.00;5012919;27;97182;-83
2024/01/02 03:16:39;;;;;;;5.57;1.80;;;;;;;8.02;64.46;99505.09;5031975;27;96919;-82
2024/01/02 03:19:05;;;;;;;4.95;2.40;;;;;;;8.13;64.43;99502.97;5017817;28;97609;-82
2024/01/02 03:21:30;;;;;;;7.30;2.63;;;;;;;8.08;64.38;99502.25;5008353;27;100167;-83
2024/01/02 03:23:56;;;;;;;5.85;2.75;;;;;;;7.99;64.58;99500.00;5030211;27;97100;-83
2024/01/02 03:26:21;;;;;;;6.07;2.72;;;;;;;7.94;64.81;99479.25;5002950;27;96821;-82
2024/01/02 03:28:47;;;;;;;7.63;3.25;;;;;;;8.00;64.79;99499.94;5014490;27;101230;-82
2024/01/02 03:31:12;;;;;;;8.35;3.40;;;;;;;8.02;64.40;99495.50;5011864;28;97396;-84
2024/01/02 03:33:38;;;;;;;8.05;2.97;;;;;;;8.05;64.11;99498.00;5010138;27;96753;-82
2024/01/02 03:36:04;;;;;;;5.65;2.53;;;;;;;8.05;63.90;99502.38;5030566;27;96714;-83
2024/01/02 03:38:30;;;;;;;8.60;2.67;;;;;;;7.92;64.11;99496.75;5018485;27;97498;-82
2024/01/02 03:40:56;;;;;;;6.18;2.35;;;;;;;7.86;64.09;99484.75;5013620;27;101236;-83
2024/01/02 03:43:22;;;;;;;7.22;2.80;;;;;;;7.85;64.18;99480.47;5016801;27;96894;-83
2024/01/02 03:45:47;;;;;;;9.90;2.75;;;;;;;7.87;64.07;99486.47;5035268;27;97956;-83
2024/01/02 03:48:13;;;;;;;9.18;2.50;;;;;;;7.71;63.91;99465.28;5035093;27;97463;-83
2024/01/02 03:50:39;;;;;;;10.73;2.30;;;;;;;7.69;64.18;99472.31;5019746;27;98595;-84
2024/01/02 03:53:04;;;;;;;6.15;2.40;;;;;;;7.67;64.14;99487.16;5034474;27;97135;-82
2024/01/02 03:55:30;;;;;;;7.72;2.58;;;;;;;7.69;63.86;99485.38;5029629;27;96922;-83
2024/01/02 03:57:55;;;;;;;8.27;2.88;;;;;;;7.79;63.74;99480.66;5018148;27;101029;-83
2024/01/02 04:00:21;;;;;;;6.03;2.17;;;;;;;7.81;63.91;99483.22;5014681;27;101193;-83
2024/01/02 04:02:46;;;;;;;5.22;2.05;;;;;;;7.67;63.24;99455.81;5017952;27;96795;-82
2024/01/02 04:05:12;;;;;;;8.27;2.50;;;;;;;7.61;63.43;99461.25;5013047;28;96850;-83
2024/01/02 04:07:38;;;;;;;9.93;3.08;;;;;;;7.64;63.54;99465.53;5028546;27;98102;-83
2024/01/02 04:10:04;;;;;;;7.47;2.40;;;;;;;7.56;63.50;99457.09;5017853;27;101405;-83
2024/01/02 04:12:29;;;;;;;6.20;1.98;;;;;;;7.51;63.11;99465.13;5033017;27;96759;-83
2024/01/02 04:14:55;;;;;;;6.03;2.38;;;;;;;7.45;63.44;99462.72;5033360;27;96773;-83
2024/01/02 04:17:20;;;;;;;10.88;2.47;;;;;;;7.46;62.82;99462.66;5034106;27;98049;-84
2024/01/02 04:19:46;;;;;;;9.40;2.95;;;;;;;7.37;63.24;99451.69;5017447;27;100812;-84
2024/01/02 04:22:12;;;;;;;8.13;3.15;;;;;;;7.47;63.58;99468.72;5011602;28;96869;-84
2024/01/02 04:24:37;;;;;;;6.03;2.88;;;;;;;7.44;62.85;99463.63;5025366;28;96878;-83
2024/01/02 04:27:03;;;;;;;15.40;3.22;;;;;;;7.35;62.71;99441.28;5015552;27;101251;-83
2024/01/02 04:29:28;;;;;;;11.25;2.72;;;;;;;7.41;62.30;99461.97;5044850;27;98156;-83
2024/01/02 04:31:54;;;;;;;7.60;2.83;;;;;;;7.24;62.79;99440.81;5026102;27;97165;-82
2024/01/02 04:34:19;;;;;;;8.05;2.38;;;;;;;7.36;62.26;99450.84;5015490;27;97097;-83
2024/01/02 04:36:45;;;;;;;10.15;3.25;;;;;;;7.34;62.65;99454.41;5034082;27;98058;-83
2024/01/02 04:39:10;;;;;;;10.48;2.78;;;;;;;7.31;62.45;99444.06;5017351;27;101478;-83
2024/01/02 04:41:36;;;;;;;11.88;3.42;;;;;;;7.26;62.16;99434.63;5033244;27;97755;-84
2024/01/02 04:44:01;;;;;;;5.97;2.55;;;;;;;7.37;62.21;99452.53;5004820;27;97247;-83
2024/01/02 04:46:27;;;;;;;9.18;3.03;;;;;;;7.24;61.66;99415.56;5021730;27;101027;-83
2024/01/02 04:48:56;;;;;;;9.65;2.72;;;;;;;7.41;62.08;99437.63;5052476;27;97440;-83
2024/01/02 04:51:22;;;;;;;11.52;3.00;;;;;;;7.34;61.26;99428.31;5015880;27;96891;-83
2024/01/02 04:53:47;;;;;;;5.75;2.83;;;;;;;7.20;61.46;99418.34;5000344;27;96803;-83
2024/01/02 04:56:13;;;;;;;5.30;2.40;;;;;;;7.27;61.34;99430.25;5000234;27;101401;-82
2024/01/02 04:58:38;;;;;;;10.52;3.15;;;;;;;7.17;60.99;99408.84;5017125;27;101145;-82
2024/01/02 05:01:04;;;;;;;8.05;2.80;;;;;;;7.32;61.23;99430.09;5028042;27;97110;-83
2024/01/02 05:03:30;;;;;;;9.00;3.28;;;;;;;7.10;60.94;99396.06;5021715;27;96856;-83
2024/01/02 05:05:55;;;;;;;6.18;2.45;;;;;;;7.21;60.76;99426.13;5029086;27;97877;-83
2024/01/02 05:08:21;;;;;;;8.38;3.05;;;;;;;7.18;60.83;99417.53;5017025;27;100638;-83
2024/01/02 05:10:46;;;;;;;11.40;2.75;;;;;;;7.18;60.71;99417.53;5028941;27;97487;-83
2024/01/02 05:13:12;;;;;;;7.22;2.33;;;;;;;7.15;61.01;99420.25;5016071;27;97813;-83
2024/01/02 05:15:38;;;;;;;11.05;2.45;;;;;;;6.99;60.75;99418.16;5016755;27;101475;-83
2024/01/02 05:18:03;;;;;;;10.20;2.70;;;;;;;6.84;61.25;99418.69;5017017;27;101267;-83
2024/01/02 05:20:29;;;;;;;9.75;2.70;;;;;;;6.60;61.83;99416.84;5033287;27;97106;-83
2024/01/02 05:22:54;;;;;;;11.10;4.32;;;;;;;6.67;61.86;99428.81;5033057;27;96858;-83
2024/01/02 05:25:20;;;;;;;11.38;3.90;;;;;;;6.58;61.50;99415.16;5013614;27;97458;-83
2024/01/02 05:27:45;;;;;;;10.57;4.18;;;;;;;6.64;61.71;99413.25;5013184;28;101033;-83
2024/01/02 05:30:11;;;;;;;11.18;4.63;;;;;;;6.58;61.86;99422.13;5032058;27;97034;-84
2024/01/02 05:32:37;;;;;;;14.25;4.25;;;;;;;6.53;61.90;99413.59;5013218;28;97243;-83
2024/01/02 05:35:02;;;;;;;13.68;4.13;;;;;;;6.35;62.14;99392.41;5014761;27;98466;-83
2024/01/02 05:37:28;;;;;;;10.07;3.53;;;;;;;6.21;62.45;99389.38;5031558;27;97722;-83
2024/01/02 05:39:55;;;;;;;12.88;3.85;;;;;;;6.34;62.84;99411.59;5009188;27;97128;-83
2024/01/02 05:42:21;;;;;;;12.65;3.60;;;;;;;6.26;62.43;99418.78;5001370;27;96951;-83
2024/01/02 05:44:47;;;;;;;7.20;2.75;;;;;;;6.22;63.02;99424.13;5015524;27;97854;-85
2024/01/02 05:47:13;;;;;;;11.35;3.25;;;;;;;6.11;62.94;99420.09;5016222;27;97891;-85
2024/01/02 05:49:38;;;;;;;9.68;2.60;;;;;;;5.96;63.01;99412.72;5015512;27;97137;-84
2024/01/02 05:52:04;;;;;;;7.38;2.75;;;;;;;5.69;63.27;99398.72;5021453;27;98821;-84
2024/01/02 05:54:29;;;;;;;11.90;3.27;;;;;;;5.76;63.94;99431.53;5026020;27;101149;-84
2024/01/02 05:56:55;;;;;;;10.83;2.90;;;;;;;5.57;64.05;99404.28;5025549;27;97972;-85
2024/01/02 05:59:20;;;;;;;8.13;2.75;;;;;;;5.55;64.29;99414.72;5011896;27;96838;-83
2024/01/02 06:01:46;;;;;;;9.40;2.60;;;;;;;5.36;64.49;99411.78;5015436;27;96831;-84
2024/01/02 06:04:11;;;;;;;9.70;3.13;;;;;;;5.42;64.32;99418.59;5014431;27;101715;-85
2024/01/02 06:06:37;;;;;;;11.37;3.10;;;;;;;5.36;64.29;99411.78;5032787;27;98135;-88
2024/01/02 06:09:02;;;;;;;7.30;2.67;;;;;;;5.35;64.46;99404.91;5015212;27;96665;-84
2024/01/02 06:11:28;;;;;;;8.13;2.45;;;;;;;5.38;64.92;99417.81;5015934;27;96867;-76
2024/01/02 06:13:53;;;;;;;16.13;3.90;;;;;;;5.31;64.65;99411.06;5013573;27;100785;-74
2024/01/02 06:16:20;;;;;;;8.20;2.63;;;;;;;5.34;64.22;99413.56;5015969;27;97996;-83
2024/01/02 06:18:45;;;;;;;10.83;3.17;;;;;;;5.29;64.50;99412.84;5016993;27;97172;-83
2024/01/02 06:21:11;;;;;;;8.70;2.77;;;;;;;5.35;64.16;99412.69;5043246;27;97273;-83
2024/01/02 06:23:36;;;;;;;11.53;2.93;;;;;;;5.39;64.39;99411.72;5012095;27;101205;-84
2024/01/02 06:26:02;;;;;;;12.73;2.80;;;;;;;5.36;64.29;99406.59;5032365;27;100926;-83
2024/01/02 06:28:27;;;;;;;6.87;2.90;;;;;;;5.26;64.51;99394.72;5013287;27;96746;-84
2024/01/02 06:30:53;;;;;;;12.70;3.47;;;;;;;5.11;64.82;99390.78;5010254;28;96811;-84
2024/01/02 06:33:18;;;;;;;11.27;3.10;;;;;;;5.10;65.13;99396.88;5046515;27;97336;-84
2024/01/02 06:35:44;;;;;;;9.82;2.90;;;;;;;4.97;65.00;99382.47;5032679;27;98080;-83
2024/01/02 06:38:09;;;;;;;8.57;2.93;;;;;;;4.99;65.28;99384.16;5031937;27;96986;-84
2024/01/02 06:40:36;;;;;;;10.03;2.77;;;;;;;5.12;65.25;99402.03;5011190;27;97012;-84
2024/01/02 06:43:02;;;;;;;6.90;2.33;;;;;;;5.27;65.07;99395.59;4995155;27;101148;-83
2024/01/02 06:45:27;;;;;;;6.97;2.87;;;;;;;5.28;64.74;99386.88;5020873;27;100505;-76
2024/01/02 06:47:53;;;;;;;12.03;3.33;;;;;;;5.33;65.09;99388.47;5025343;27;96849;-75
2024/01/02 06:50:18;;;;;;;6.23;2.53;;;;;;;5.42;64.91;99387.34;5016528;27;96822;-76
2024/01/02 06:52:44;;;;;;;5.83;2.50;;;;;;;5.45;64.67;99380.31;5008306;27;101121;-76
2024/01/02 06:55:10;;;;;;;6.97;2.73;;;;;;;5.46;64.59;99381.16;5013052;27;97393;-76
2024/01/02 06:57:35;;;;;;;12.73;3.50;;;;;;;5.26;64.56;99353.06;5022614;27;97355;-76
2024/01/02 07:00:01;;;;;;;11.63;2.90;;;;;;;5.37;64.73;99364.03;5004010;28;97044;-76
2024/01/02 07:02:29;;;;;;;8.30;2.50;;;;;;;5.34;64.82;99368.47;5013876;27;101203;-77
2024/01/02 07:04:55;;;;;;;7.73;2.70;;;;;;;5.23;65.88;99379.19;5007756;27;99064;-77
2024/01/02 07:07:21;;;;;;;8.07;2.50;;;;;;;5.28;65.28;99374.72;5038898;27;97567;-77
2024/01/02 07:09:46;;;;;;;9.87;3.07;;;;;;;5.32;65.73;99373.72;5012474;27;97549;-76
2024/01/02 07:12:12;;;;;;;7.37;2.40;;;;;;;5.17;65.58;99348.97;5016368;27;100529;-77
2024/01/02 07:14:37;;;;;;;9.13;2.57;;;;;;;5.24;65.87;99367.91;5030463;27;97575;-77
2024/01/02 07:17:03;;;;;;;5.67;2.73;;;;;;;4.96;66.47;99344.38;5013117;27;97826;-77
2024/01/02 07:19:29;;;;;;;12.13;3.57;;;;;;;5.02;66.55;99361.56;5049950;27;97222;-78
2024/01/02 07:21:54;;;;;;;16.87;4.50;;;;;;;4.95;67.07;99360.88;5028653;27;97733;-77
2024/01/02 07:24:20;;;;;;;11.77;4.77;;;;;;;5.05;67.21;99358.88;5050614;27;97750;-78
2024/01/02 07:26:45;;;;;;;12.10;4.20;;;;;;;4.96;67.20;99332.22;5027994;27;96950;-77
2024/01/02 07:29:11;;;;;;;11.13;4.23;;;;;;;5.00;67.04;99332.97;5015713;27;97262;-78
2024/01/02 07:31:36;;;;;;;12.93;4.50;;;;;;;5.28;66.42;99350.44;5023746;27;100888;-79
2024/01/02 07:34:02;;;;;;;16.57;5.10;;;;;;;5.34;66.58;99343.31;5016535;27;101382;-79
2024/01/02 07:36:27;;;;;;;12.43;3.33;;;;;;;5.18;66.61;99335.09;5041320;27;97224;-80
2024/01/02 07:38:53;;;;;;;12.83;3.97;;;;;;;5.18;66.56;99340.28;5020361;27;97214;-80
2024/01/02 07:41:19;;;;;;;14.97;4.37;;;;;;;5.05;66.97;99333.72;5019556;27;98151;-79
2024/01/02 07:43:44;;;;;;;9.40;3.87;;;;;;;4.95;67.37;99307.09;5012253;27;101109;-79
2024/01/02 07:46:10;;;;;;;11.53;3.53;;;;;;;5.03;67.51;99332.88;5039819;27;97827;-79
2024/01/02 07:48:35;;;;;;;9.83;3.27;;;;;;;4.99;67.72;99320.88;5028060;27;97203;-80
2024/01/02 07:51:01;;;;;;;11.83;3.73;;;;;;;4.99;67.30;99298.31;5017004;27;98171;-79
2024/01/02 07:53:26;;;;;;;11.23;4.07;;;;;;;4.98;67.95;99307.03;5020147;27;97270;-79
2024/01/02 07:55:52;;;;;;;11.37;4.70;;;;;;;5.15;68.24;99316.13;5013904;27;97662;-79
2024/01/02 07:58:17;;;;;;;12.18;4.72;;;;;;;5.16;67.85;99308.25;5013915;27;97155;-79
2024/01/02 08:00:43;;;;;;;14.13;4.10;;;;;;;5.27;68.26;99320.97;5035741;27;98848;-79
2024/01/02 08:03:09;;;;;;;11.87;4.23;;;;;;;5.14;67.76;99280.56;5021667;27;101159;-80
2024/01/02 08:05:35;;;;;;;12.53;4.17;;;;;;;5.28;67.70;99288.84;5030302;27;98293;-81
2024/01/02 08:08:01;;;;;;;13.83;4.50;;;;;;;5.37;67.46;99295.53;5013577;27;97137;-79
2024/01/02 08:10:26;;;;;;;11.70;4.00;;;;;;;5.55;67.32;99315.81;5026421;27;97153;-80
2024/01/02 08:12:52;;;;;;;12.60;4.67;;;;;;;5.55;67.72;99294.13;5012930;28;101527;-79
2024/01/02 08:15:17;;;;;;;12.67;4.90;;;;;;;5.58;67.74;99307.06;5012127;27;98179;-80
2024/01/02 08:17:43;;;;;;;17.80;4.70;;;;;;;5.49;67.37;99307.31;5039080;27;97148;-79
2024/01/02 08:20:10;;;;;;;15.17;5.67;;;;;;;5.33;68.16;99302.56;5017968;27;97547;-79
2024/01/02 08:22:35;;;;;;;16.57;5.50;;;;;;;5.10;68.26;99268.56;5010737;28;101304;-80
2024/01/02 08:25:01;;;;;;;20.13;4.97;;;;;;;5.34;67.93;99296.47;5008039;27;96871;-79
2024/01/02 08:27:26;;;;;;;12.77;4.57;;;;;;;5.48;68.15;99303.03;5022007;28;96815;-79
2024/01/02 08:29:52;;;;;;;12.50;4.83;;;;;;;5.35;68.92;99300.78;5002312;27;101677;-79
2024/01/02 08:32:20;;;;;;;16.40;5.27;;;;;;;5.49;68.38;99297.75;5010398;27;101462;-80
2024/01/02 08:34:46;;;;;;;19.70;5.40;;;;;;;5.58;67.98;99289.69;5016613;27;97148;-82
2024/01/02 08:37:11;;;;;;;17.40;4.97;;;;;;;5.74;67.83;99290.06;5013196;28;97413;-85
2024/01/02 08:39:37;;;;;;;18.57;7.33;;;;;;;5.82;67.90;99293.31;4996046;27;100188;-85
2024/01/02 08:42:02;;;;;;;14.20;6.50;;;;;;;5.94;67.12;99286.88;5040423;27;97970;-82
2024/01/02 08:44:28;;;;;;;18.95;7.50;;;;;;;5.88;69.04;99294.88;5015465;27;96757;-81
2024/01/02 08:46:53;;;;;;;17.33;7.23;;;;;;;5.87;68.46;99278.38;4997518;27;97737;-87
2024/01/02 08:49:19;;;;;;;24.10;8.75;;;;;;;6.02;67.09;99271.88;5015396;27;98138;-86
2024/01/02 08:51:44;;;;;;;20.75;7.32;;;;;;;6.04;67.41;99285.69;5017379;27;97496;-84
2024/01/02 08:54:10;;;;;;;16.98;7.13;;;;;;;6.05;67.46;99281.31;5014889;27;96890;-83
2024/01/02 08:56:35;;;;;;;20.55;7.25;;;;;;;6.10;67.28;99274.22;5017276;27;97302;-86
2024/01/02 08:59:02;;;;;;;15.50;6.60;;;;;;;6.05;67.53;99287.41;5016317;27;101083;-85
2024/01/02 09:01:28;;;;;;;16.30;7.53;;;;;;;6.16;67.29;99267.97;5015512;27;97284;-84
2024/01/02 09:03:54;;;;;;;18.10;6.43;;;;;;;6.24;67.33;99265.97;5010766;27;96725;-84
2024/01/02 09:06:19;;;;;;;21.57;7.47;;;;;;;6.18;67.41;99238.34;5028566;27;97319;-84
2024/01/02 09:08:45;;;;;;;17.93;6.60;;;;;;;6.29;66.89;99236.22;5011357;27;97473;-84
2024/01/02 09:11:11;;;;;;;26.58;7.43;;;;;;;6.27;66.84;99230.22;5020528;27;98091;-84
2024/01/02 09:13:37;;;;;;;16.58;5.32;;;;;;;6.34;67.53;99254.31;5028823;27;96804;-84
2024/01/02 09:16:03;;;;;;;18.75;6.20;;;;;;;6.23;67.49;99236.44;5001100;27;96803;-85
2024/01/02 09:18:28;;;;;;;14.23;6.10;;;;;;;6.35;67.48;99240.38;5011889;27;101511;-84
2024/01/02 09:20:54;;;;;;;19.40;6.90;;;;;;;6.27;67.63;99234.56;5029195;27;97404;-84
2024/01/02 09:23:20;;;;;;;31.58;7.68;;;;;;;6.07;67.96;99214.38;5028600;27;97963;-84
2024/01/02 09:25:47;;;;;;;15.93;6.33;;;;;;;6.08;68.31;99218.72;5031211;27;97157;-85
2024/01/02 09:28:19;;;;;;;19.38;6.13;;;;;;;6.15;68.53;99227.19;5012706;27;99692;-86
2024/01/02 09:30:45;;;;;;;19.45;5.93;;;;;;;5.99;68.52;99196.44;5012596;27;101198;-85
2024/01/02 09:33:11;;;;;;;20.23;7.85;;;;;;;5.97;68.44;99184.34;5010030;27;97910;-86
2024/01/02 09:35:36;;;;;;;19.95;7.68;;;;;;;5.99;68.48;99196.44;5016312;27;97146;-83
2024/01/02 09:38:04;;;;;;;19.23;5.75;;;;;;;6.10;68.83;99214.28;5032921;27;98370;-82
2024/01/02 09:40:48;;;;;;;22.05;6.75;;;;;;;6.22;68.62;99221.69;5028711;27;98059;-82
2024/01/02 09:43:20;;;;;;;17.40;5.82;;;;;;;6.23;67.84;99210.38;5051364;27;98543;-82
2024/01/02 09:46:11;;;;;;;18.33;6.07;;;;;;;6.27;67.99;99214.56;5028943;27;96923;-81
2024/01/02 09:48:45;;;;;;;15.88;6.07;;;;;;;6.17;67.97;99170.63;5027042;27;101837;-87
2024/01/02 09:51:29;;;;;;;19.38;5.40;;;;;;;6.34;67.97;99186.53;5013632;27;100875;-80
2024/01/02 09:54:30;;;;;;;12.87;5.40;;;;;;;6.32;67.74;99170.97;5050107;27;96684;-83
2024/01/02 09:57:06;;;;;;;17.40;5.45;;;;;;;6.35;67.63;99175.22;5013958;27;97972;-82
2024/01/02 09:59:44;;;;;;;17.45;5.43;;;;;;;6.27;67.41;99119.91;5029369;27;97668;-82
2024/01/02 10:02:26;;;;;;;13.00;4.97;;;;;;;6.52;67.09;99146.81;5035477;27;97948;-82
2024/01/02 10:05:23;;;;;;;16.70;5.30;;;;;;;6.52;66.42;99153.78;5033036;27;96818;-82
2024/01/02 10:08:00;;;;;;;16.58;4.93;;;;;;;6.61;66.77;99156.03;5033263;27;97181;-82
2024/01/02 10:10:49;;;;;;;24.58;5.80;;;;;;;6.60;66.54;99151.72;5044323;27;97457;-82
2024/01/02 10:13:24;;;;;;;35.40;11.30;;;;;;;6.50;66.42;99124.28;5041626;27;97605;-82
2024/01/02 10:15:58;;;;;;;36.30;12.27;;;;;;;6.44;66.62;99104.50;5046180;27;96706;-82
2024/01/02 10:18:34;;;;;;;16.45;6.30;;;;;;;6.63;66.87;99135.13;5044697;27;96705;-82
2024/01/02 10:21:18;;;;;;;22.25;5.28;;;;;;;6.71;66.34;99128.72;5030015;27;101488;-81
2024/01/02 10:23:58;;;;;;;18.42;5.60;;;;;;;6.74;66.48;99123.38;5047829;27;97945;-81
2024/01/02 10:26:27;;;;;;;20.73;7.10;;;;;;;6.76;66.48;99129.41;5037068;27;97327;-82
2024/01/02 10:28:58;;;;;;;26.85;9.50;;;;;;;6.79;66.20;99113.63;5015596;27;96938;-87
2024/01/02 10:31:29;;;;;;;24.08;8.88;;;;;;;6.95;66.32;99107.81;4985165;27;101163;-88
2024/01/02 10:34:11;;;;;;;18.33;7.10;;;;;;;6.97;65.70;99079.91;5016299;27;97474;-86
2024/01/02 10:36:43;;;;;;;20.25;8.13;;;;;;;7.08;66.01;99090.78;5020442;27;96825;-88
2024/01/02 10:39:14;;;;;;;20.65;5.35;;;;;;;7.07;65.45;99080.41;5001512;28;96796;-84
2024/01/02 10:41:59;;;;;;;;;;;;;;;7.07;65.59;99080.41;5013042;27;99731;-89
2024/01/02 10:44:30;;;;;;;20.92;7.07;;;;;;;7.08;65.85;99077.75;5031488;27;101343;-88
2024/01/02 10:47:05;;;;;;;16.33;5.05;;;;;;;7.23;65.73;99078.88;5026569;27;97137;-88
2024/01/02 10:49:40;;;;;;;28.50;6.07;;;;;;;6.98;65.21;99043.34;5032945;27;96969;-82
2024/01/02 10:52:25;;;;;;;23.75;7.28;;;;;;;7.08;65.43;99064.69;5024362;27;97409;-86
2024/01/02 10:55:07;;;;;;;24.40;9.68;;;;;;;7.13;65.96;99069.75;5027834;28;101426;-85
2024/01/02 10:57:35;;;;;;;;;;;;;;;7.13;65.77;99064.53;5029878;27;97977;-85
2024/01/02 11:00:10;;;;;;;14.95;5.30;;;;;;;7.10;65.93;99051.56;5026484;28;98192;-85
2024/01/02 11:03:09;;;;;;;14.98;5.25;;;;;;;7.18;65.83;99047.75;5010778;28;101384;-85
2024/01/02 11:05:49;;;;;;;20.42;8.00;;;;;;;7.02;65.73;99031.03;5021979;28;98324;-84
2024/01/02 11:08:22;;;;;;;18.35;6.40;;;;;;;7.16;66.23;99033.09;5022153;27;98124;-80
2024/01/02 11:10:58;;;;;;;18.92;5.65;;;;;;;7.24;65.95;99028.38;5027522;28;97274;-81
2024/01/02 11:13:25;;;;;;;19.90;6.05;;;;;;;7.17;65.83;99030.41;5025997;28;99534;-80
2024/01/02 11:15:55;;;;;;;16.05;6.35;;;;;;;7.16;65.77;99036.53;5027008;28;98117;-80
2024/01/02 11:18:21;;;;;;;20.05;5.68;;;;;;;7.08;66.02;98994.25;5026552;28;97866;-81
2024/01/02 11:21:05;;;;;;;27.60;9.23;;;;;;;7.22;66.21;99033.69;5024284;28;97844;-81
2024/01/02 11:23:33;;;;;;;18.92;6.40;;;;;;;7.11;66.38;99019.38;5023848;28;99760;-79
2024/01/02 11:25:58;;;;;;;18.85;7.38;;;;;;;6.98;67.34;99005.94;5026657;28;97958;-81
2024/01/02 11:28:24;;;;;;;25.35;9.77;;;;;;;6.99;68.17;99010.28;5024190;27;97902;-78
2024/01/02 11:30:50;;;;;;;25.65;10.30;;;;;;;6.95;68.59;99001.72;5020047;28;97589;-80
2024/01/02 11:33:24;;;;;;;16.25;6.35;;;;;;;6.92;68.00;98998.38;5026291;27;97988;-84
2024/01/02 11:36:02;;;;;;;19.60;5.80;;;;;;;6.90;68.03;98987.16;5025794;28;97871;-81
2024/01/02 11:38:31;;;;;;;21.58;9.20;;;;;;;6.90;67.80;98998.44;5024381;28;98030;-83